Time;durP1;ratioP1;P1;durP2;ratioP2;P2;SDS_P1;SDS_P2;PMS_P1;PMS_P2;Temp;Humidity;BMP_temperature;BMP_pressure;BME280_temperature;BME280_humidity;BME280_pressure;Samples;Min_cycle;Max_cycle;Signal;HPM_P1;HPM_P2
2022/05/20 00:01:20;;;;;;;7.47;4.90;;;17.10;99.90;;;-141.84;100.00;16811.16;5072840;28;20762;-53
2022/05/20 00:03:48;;;;;;;5.55;5.00;;;17.10;99.90;;;-141.84;100.00;16819.28;5072918;28;20710;-53
2022/05/20 00:06:16;;;;;;;7.45;5.22;;;17.10;99.90;;;-141.84;100.00;16813.19;5073145;28;20291;-53
2022/05/20 00:08:44;;;;;;;6.28;4.38;;;17.10;99.90;;;-141.84;100.00;16823.34;5073116;28;20211;-53
2022/05/20 00:11:12;;;;;;;5.40;4.90;;;17.10;99.90;;;-141.84;100.00;16817.25;5073048;28;20216;-56
2022/05/20 00:13:40;;;;;;;5.03;4.63;;;17.10;99.90;;;-141.84;100.00;16784.78;5073013;28;20196;-52
2022/05/20 00:16:09;;;;;;;6.35;4.68;;;17.10;99.90;;;-141.84;100.00;16780.72;5072916;28;20603;-54
2022/05/20 00:18:37;;;;;;;4.68;4.18;;;17.20;99.90;;;-141.84;100.00;16754.31;5072812;28;20196;-53
2022/05/20 00:21:06;;;;;;;4.57;4.18;;;17.30;99.90;;;-141.84;100.00;16744.16;5072810;28;20234;-52
2022/05/20 00:23:34;;;;;;;4.15;3.75;;;17.30;99.90;;;-141.84;100.00;16776.66;5072696;28;20215;-54
2022/05/20 00:26:02;;;;;;;5.22;4.32;;;17.30;99.90;;;-141.84;100.00;16713.69;5072792;28;20208;-52
2022/05/20 00:28:31;;;;;;;5.20;4.47;;;17.40;99.90;;;-141.84;100.00;16736.03;5072257;28;20201;-54
2022/05/20 00:31:04;;;;;;;6.47;4.35;;;17.50;99.90;;;-141.84;100.00;16719.78;5072642;28;20201;-53
2022/05/20 00:33:36;;;;;;;4.30;3.90;;;17.50;99.90;;;-141.84;100.00;16693.38;5072659;28;20212;-53
2022/05/20 00:36:05;;;;;;;4.40;4.00;;;17.50;99.90;;;-141.84;100.00;16721.81;5072570;28;20200;-54
2022/05/20 00:38:33;;;;;;;7.53;4.82;;;17.50;99.90;;;-141.84;100.00;16721.81;5072303;28;20196;-54
2022/05/20 00:41:03;;;;;;;4.93;4.53;;;17.50;99.90;;;-141.84;100.00;16721.81;5072101;28;20326;-51
2022/05/20 00:43:39;;;;;;;4.95;4.55;;;17.40;99.90;;;-141.84;100.00;16701.50;5072279;28;20208;-53
2022/05/20 00:46:11;;;;;;;6.25;5.28;;;17.40;99.90;;;-141.84;100.00;16687.28;5072476;28;20184;-55
2022/05/20 00:48:41;;;;;;;5.50;5.00;;;17.30;99.90;;;-141.84;100.00;16719.78;5072276;28;20196;-55
2022/05/20 00:51:14;;;;;;;6.85;5.07;;;17.40;99.90;;;-141.84;100.00;16717.75;5072195;28;20181;-53
2022/05/20 00:53:52;;;;;;;6.32;5.30;;;17.30;99.90;;;-141.84;100.00;16752.28;5072231;28;20185;-53
2022/05/20 00:56:24;;;;;;;6.60;5.30;;;17.20;99.90;;;-141.84;100.00;16685.25;5071318;28;20185;-54
2022/05/20 00:58:55;;;;;;;5.03;4.50;;;17.20;99.90;;;-141.84;100.00;16729.94;5071724;28;20280;-52
2022/05/20 01:01:23;;;;;;;5.68;5.15;;;17.10;99.90;;;-141.84;100.00;16742.13;5072043;28;20279;-53
2022/05/20 01:03:55;;;;;;;5.75;5.15;;;17.10;99.90;;;-141.84;100.00;16703.53;5072168;28;20203;-51
2022/05/20 01:06:23;;;;;;;5.63;4.53;;;17.10;99.90;;;-141.84;100.00;16705.56;5072081;28;20205;-50
2022/05/20 01:08:52;;;;;;;6.60;4.30;;;17.10;99.90;;;-141.84;100.00;16734.00;5071729;28;20675;-49
2022/05/20 01:11:20;;;;;;;4.97;4.47;;;17.10;99.90;;;-141.84;100.00;16709.63;5071712;28;20575;-52
2022/05/20 01:13:49;;;;;;;6.30;4.18;;;17.00;99.90;;;-141.84;100.00;16705.56;5071555;28;20747;-53
2022/05/20 01:16:18;;;;;;;4.45;4.10;;;17.00;99.90;;;-141.84;100.00;16734.00;5071972;28;20638;-55
2022/05/20 01:18:53;;;;;;;4.78;4.15;;;17.00;99.90;;;-141.84;100.00;16770.56;5071924;28;20311;-53
2022/05/20 01:21:22;;;;;;;6.80;4.15;;;16.90;99.90;;;-141.84;100.00;16709.63;5071790;28;20588;-49
2022/05/20 01:23:51;;;;;;;4.82;4.43;;;16.90;99.90;;;-141.84;100.00;16693.38;5071406;28;20201;-55
2022/05/20 01:26:21;;;;;;;5.43;4.13;;;16.90;99.90;;;-141.84;100.00;16662.94;5071483;28;20288;-53
2022/05/20 01:28:49;;;;;;;4.78;3.92;;;16.90;99.90;;;-141.84;100.00;16699.47;5071328;28;20579;-53
2022/05/20 01:31:17;;;;;;;4.50;4.10;;;16.90;99.90;;;-141.84;100.00;16729.94;5071562;28;20226;-55
2022/05/20 01:33:48;;;;;;;4.90;4.40;;;16.90;99.90;;;-141.84;100.00;16736.03;5071633;28;20514;-55
2022/05/20 01:36:20;;;;;;;5.35;4.30;;;16.80;99.90;;;-141.84;100.00;16758.38;5071599;28;20583;-53
2022/05/20 01:38:52;;;;;;;5.72;4.68;;;16.70;99.90;;;-141.84;100.00;16721.81;5071436;28;20240;-56
2022/05/20 01:41:29;;;;;;;5.30;4.18;;;16.70;99.90;;;-141.84;100.00;16762.44;5071441;28;20271;-51
2022/05/20 01:44:08;;;;;;;6.07;4.82;;;16.70;99.90;;;-141.84;100.00;16701.50;5071592;28;20192;-51
2022/05/20 01:46:41;;;;;;;4.75;4.35;;;16.60;99.90;;;-141.84;100.00;16729.94;5071634;28;20608;-54
2022/05/20 01:49:25;;;;;;;4.80;4.40;;;16.60;99.90;;;-141.84;100.00;16736.03;5071606;28;20312;-53
2022/05/20 01:52:04;;;;;;;4.70;4.30;;;16.60;99.90;;;-141.84;100.00;16729.94;5071447;28;20185;-54
2022/05/20 01:54:49;;;;;;;6.35;4.93;;;16.50;99.90;;;-141.84;100.00;16731.97;5071416;28;20181;-53
2022/05/20 01:57:26;;;;;;;4.90;4.40;;;16.50;99.90;;;-141.84;100.00;16738.06;5071491;28;20195;-53
2022/05/20 02:00:05;;;;;;;5.05;4.20;;;16.50;99.90;;;-141.84;100.00;16725.88;5071492;28;20270;-53
2022/05/20 02:02:45;;;;;;;5.40;4.90;;;16.50;99.90;;;-141.84;100.00;16725.88;5071478;28;20204;-54
2022/05/20 02:05:25;;;;;;;5.63;4.25;;;16.50;99.90;;;-141.84;100.00;16725.88;5071479;28;20205;-54
2022/05/20 02:08:07;;;;;;;4.45;4.07;;;16.40;99.90;;;-141.84;100.00;16689.31;5072383;28;20223;-54
2022/05/20 02:10:41;;;;;;;6.05;4.45;;;16.40;99.90;;;-141.84;100.00;16703.53;5075461;28;20676;-53
2022/05/20 02:13:16;;;;;;;5.28;4.40;;;16.40;99.90;;;-141.84;100.00;16742.13;5075594;28;20202;-55
2022/05/20 02:15:50;;;;;;;5.75;4.95;;;16.40;99.90;;;-141.84;100.00;16681.19;5075135;28;20249;-52
2022/05/20 02:18:27;;;;;;;5.00;4.47;;;16.30;99.90;;;-141.84;100.00;16715.72;5074967;28;20243;-54
2022/05/20 02:21:03;;;;;;;5.85;4.85;;;16.30;99.90;;;-141.84;100.00;16705.56;5075258;28;20631;-53
2022/05/20 02:23:37;;;;;;;5.22;4.72;;;16.30;99.90;;;-141.84;100.00;16703.53;5075153;28;20272;-54
2022/05/20 02:26:13;;;;;;;4.93;4.43;;;16.30;99.90;;;-141.84;100.00;16693.38;5075198;28;20271;-53
2022/05/20 02:28:46;;;;;;;5.78;4.82;;;16.20;99.90;;;-141.84;100.00;16683.22;5074913;28;20196;-52
2022/05/20 02:31:23;;;;;;;6.72;4.72;;;16.20;99.90;;;-141.84;100.00;16677.16;5074683;28;20195;-53
2022/05/20 02:33:51;;;;;;;5.28;4.78;;;16.20;99.90;;;-141.84;100.00;16691.34;5074710;28;20194;-51
2022/05/20 02:36:24;;;;;;;5.90;4.80;;;16.20;99.90;;;-141.84;100.00;16691.34;5074812;28;20247;-54
2022/05/20 02:38:52;;;;;;;5.15;4.65;;;16.20;99.90;;;-141.84;100.00;16697.44;5074721;28;20203;-56
2022/05/20 02:41:22;;;;;;;5.95;5.10;;;16.10;99.90;;;-141.84;100.00;16721.81;5074475;28;20244;-54
2022/05/20 02:43:50;;;;;;;5.15;4.72;;;16.20;99.90;;;-141.84;100.00;16664.97;5074678;28;20219;-52
2022/05/20 02:46:18;;;;;;;5.35;4.85;;;16.10;99.90;;;-141.84;100.00;16677.16;5074765;28;20373;-53
2022/05/20 02:48:46;;;;;;;6.90;5.30;;;16.10;99.90;;;-141.84;100.00;16701.50;5074714;28;20207;-52
2022/05/20 02:51:16;;;;;;;5.32;4.50;;;16.00;99.90;;;-141.84;100.00;16689.31;5074672;28;20203;-50
2022/05/20 02:53:47;;;;;;;5.32;4.82;;;16.10;99.90;;;-141.84;100.00;16671.06;5074211;28;20699;-56
2022/05/20 02:56:15;;;;;;;8.40;5.18;;;16.00;99.90;;;-141.84;100.00;16701.50;5074621;28;20181;-52
2022/05/20 03:04:15;;;;;;;8.52;5.50;;;16.00;99.90;;;-141.84;100.00;16677.16;5074509;28;20185;-52
2022/05/20 03:06:47;;;;;;;6.45;5.82;;;15.90;99.90;;;-141.84;100.00;16691.34;5074081;28;20207;-54
2022/05/20 03:09:20;;;;;;;5.60;5.10;;;16.00;99.90;;;-141.84;100.00;16644.66;5073964;28;20564;-51
2022/05/20 03:11:48;;;;;;;6.25;5.65;;;16.00;99.90;;;-141.84;100.00;16677.16;5074351;28;20196;-53
2022/05/20 03:14:21;;;;;;;6.70;5.70;;;15.90;99.90;;;-141.84;100.00;16685.25;5074072;28;20300;-54
2022/05/20 03:16:50;;;;;;;6.38;5.55;;;15.90;99.90;;;-141.84;100.00;16642.63;5074201;28;20189;-53
2022/05/20 03:19:20;;;;;;;8.68;5.78;;;15.90;99.90;;;-141.84;100.00;16669.03;5073494;28;20205;-52
2022/05/20 03:21:49;;;;;;;7.15;6.55;;;15.90;99.90;;;-141.84;100.00;16648.72;5073954;28;20239;-55
2022/05/20 03:24:17;;;;;;;7.93;6.60;;;15.90;99.90;;;-141.84;100.00;16642.63;5073951;28;20200;-54
2022/05/20 03:26:47;;;;;;;7.43;6.80;;;15.90;99.90;;;-141.84;100.00;16703.53;5074132;28;20288;-50
2022/05/20 03:29:15;;;;;;;7.82;6.53;;;15.90;99.90;;;-141.84;100.00;16648.72;5073867;28;20291;-53
2022/05/20 03:31:45;;;;;;;7.65;6.55;;;15.90;99.90;;;-141.84;100.00;16632.47;5073692;28;20601;-52
2022/05/20 03:34:13;;;;;;;9.75;6.30;;;16.00;99.90;;;-141.84;100.00;16662.94;5074196;28;20644;-49
2022/05/20 03:36:48;;;;;;;6.85;6.15;;;16.00;99.90;;;-141.84;100.00;16675.13;5073900;28;20204;-53
2022/05/20 03:39:21;;;;;;;6.75;5.95;;;16.10;99.90;;;-141.84;100.00;16644.66;5073236;28;20223;-52
2022/05/20 03:41:49;;;;;;;7.57;6.75;;;16.10;99.90;;;-141.84;100.00;16669.03;5073402;28;20195;-54
2022/05/20 03:44:19;;;;;;;7.55;6.32;;;16.20;99.90;;;-141.84;100.00;16654.81;5073524;28;20363;-53
2022/05/20 03:46:52;;;;;;;7.10;6.13;;;16.20;99.90;;;-141.84;100.00;16671.06;5073932;28;20227;-51
2022/05/20 03:49:23;;;;;;;7.10;6.45;;;16.20;99.90;;;-141.84;100.00;16713.69;5073342;28;20189;-56
2022/05/20 03:51:53;;;;;;;7.45;6.65;;;16.30;99.90;;;-141.84;100.00;16650.75;5073602;28;20191;-52
2022/05/20 03:54:26;;;;;;;6.38;5.72;;;16.20;99.90;;;-141.84;100.00;16636.53;5073425;28;20189;-51
2022/05/20 03:56:53;;;;;;;7.72;6.47;;;16.30;99.90;;;-141.84;100.00;16654.81;5073204;28;20253;-52
2022/05/20 03:59:22;;;;;;;7.50;6.45;;;16.30;99.90;;;-141.84;100.00;16636.53;5073339;28;20203;-54
2022/05/20 04:02:00;;;;;;;6.05;5.47;;;16.30;99.90;;;-141.84;100.00;16648.72;5073403;28;20648;-52
2022/05/20 04:04:34;;;;;;;6.60;5.72;;;16.30;99.90;;;-141.84;100.00;16642.63;5073338;28;20197;-55
2022/05/20 04:07:05;;;;;;;6.60;5.95;;;16.40;99.90;;;-141.84;100.00;16677.16;5073300;28;20215;-51
2022/05/20 04:09:33;;;;;;;7.03;6.15;;;16.40;99.90;;;-141.84;100.00;16650.75;5073314;28;20203;-51
2022/05/20 04:12:05;;;;;;;6.80;6.10;;;16.50;99.90;;;-141.84;100.00;16616.22;5073193;28;20208;-55
2022/05/20 04:14:35;;;;;;;8.70;6.30;;;16.60;99.90;;;-141.84;100.00;16640.59;5072973;28;20213;-55
2022/05/20 04:17:05;;;;;;;9.25;6.30;;;16.60;99.90;;;-141.84;100.00;16608.09;5072725;28;20656;-54
2022/05/20 04:19:34;;;;;;;6.90;6.25;;;16.60;99.90;;;-141.84;100.00;16626.38;5073101;28;20272;-49
2022/05/20 04:22:09;;;;;;;10.07;6.00;;;16.70;99.90;;;-141.84;100.00;16577.63;5072914;28;20247;-52
2022/05/20 04:24:37;;;;;;;7.63;6.10;;;16.80;99.90;;;-141.84;100.00;16583.72;5072479;28;20181;-53
2022/05/20 04:27:06;;;;;;;7.28;5.75;;;16.90;99.90;;;-141.84;100.00;16577.63;5072789;28;20211;-53
2022/05/20 04:29:34;;;;;;;6.30;5.70;;;16.90;99.90;;;-141.84;99.66;16569.50;5072690;28;20264;-53
2022/05/20 04:32:05;;;;;;;7.07;5.60;;;17.00;99.90;;;-141.84;98.00;16557.34;5071414;28;20296;-53
2022/05/20 04:34:33;;;;;;;6.30;5.70;;;17.10;99.90;;;-141.84;97.92;16561.41;5072881;28;20236;-55
2022/05/20 04:37:01;;;;;;;7.30;5.70;;;17.10;99.90;;;-141.84;96.50;16557.34;5072803;28;20233;-54
2022/05/20 04:39:29;;;;;;;8.55;5.85;;;17.10;99.90;;;-141.84;96.94;16561.41;5072334;28;20647;-54
2022/05/20 04:47:33;;;;;;;6.55;5.90;;;17.20;99.90;;;-141.84;94.58;16673.09;5072170;28;20188;-51
2022/05/20 04:50:02;;;;;;;6.47;5.43;;;17.30;99.90;;;-141.84;94.81;16705.56;5072437;28;20208;-51
2022/05/20 04:52:30;;;;;;;8.50;6.22;;;17.40;99.90;;;-141.84;91.58;16831.47;5072228;28;20293;-54
2022/05/20 04:54:57;;;;;;;6.55;5.35;;;17.90;99.90;;;-141.84;87.45;17107.69;5071741;28;20572;-52
2022/05/20 04:57:29;;;;;;;6.50;5.88;;;18.30;99.90;;;-141.84;81.68;17428.59;5072146;28;20234;-53
2022/05/20 05:00:01;;;;;;;9.90;6.13;;;18.90;99.90;;;-141.84;73.54;17972.97;5071686;28;20383;-54
2022/05/20 05:02:30;;;;;;;6.90;5.13;;;19.60;99.90;;;-141.84;71.55;18151.72;5071835;28;20323;-52
2022/05/20 05:04:59;;;;;;;5.72;4.75;;;20.30;99.90;;;-141.84;70.31;18257.38;5071424;28;20204;-53
2022/05/20 05:07:27;;;;;;;6.43;5.30;;;20.70;99.90;;;-141.84;70.92;18247.22;5071900;28;20200;-51
2022/05/20 05:09:56;;;;;;;7.65;4.93;;;20.70;99.90;;;-141.84;71.77;18165.94;5071789;28;20243;-50
2022/05/20 05:12:24;;;;;;;6.80;4.68;;;20.50;99.90;;;-141.84;73.69;18040.00;5071466;28;20291;-50
2022/05/20 05:14:54;;;;;;;8.63;5.30;;;20.30;99.90;;;-141.84;74.68;17954.69;5070883;28;20687;-53
2022/05/20 05:20:17;;;;;;;5.68;5.00;;;19.70;99.90;;;-141.84;79.18;17682.47;5071832;28;20189;-52
2022/05/20 05:22:45;;;;;;;6.53;5.35;;;19.60;99.90;;;-141.84;77.62;17717.00;5071209;28;20215;-53
2022/05/20 05:25:15;;;;;;;8.27;5.65;;;19.70;99.90;;;-141.84;76.42;17802.31;5071707;28;20205;-54
2022/05/20 05:27:43;;;;;;;5.85;5.22;;;19.70;99.90;;;-141.84;78.33;17660.13;5071551;28;20208;-54
2022/05/20 05:30:14;;;;;;;7.43;5.80;;;19.70;99.90;;;-141.84;78.48;17645.91;5071578;28;20292;-53
2022/05/20 05:32:43;;;;;;;6.68;6.07;;;19.60;99.90;;;-141.84;78.92;17656.06;5071753;28;20188;-51
2022/05/20 05:35:16;;;;;;;6.93;5.75;;;19.50;99.90;;;-141.84;79.04;17625.59;5071676;28;20208;-52
2022/05/20 05:37:45;;;;;;;5.93;5.32;;;19.50;99.90;;;-141.84;79.87;17558.56;5071596;28;20530;-53
2022/05/20 05:40:17;;;;;;;5.70;5.20;;;19.50;99.90;;;-141.84;81.29;17558.56;5071307;28;20219;-55
2022/05/20 05:42:45;;;;;;;7.57;6.22;;;19.50;99.90;;;-141.84;80.31;17599.19;5071212;28;20195;-54
2022/05/20 05:45:19;;;;;;;7.20;6.60;;;19.50;99.90;;;-141.84;78.72;17674.34;5071066;28;20315;-51
2022/05/20 05:47:52;;;;;;;9.40;6.47;;;19.70;99.90;;;-141.84;77.74;17773.88;5071134;28;20191;-54
2022/05/20 05:50:22;;;;;;;8.90;6.20;;;19.80;99.90;;;-141.84;77.90;17694.66;5071808;28;20199;-53
2022/05/20 05:52:56;;;;;;;8.85;6.20;;;19.80;99.90;;;-141.84;78.14;17680.44;5071745;28;20576;-54
2022/05/20 05:55:25;;;;;;;8.75;6.15;;;19.70;99.90;;;-141.84;80.25;17617.47;5071652;28;20525;-53
2022/05/20 05:57:53;;;;;;;7.10;6.45;;;19.70;99.90;;;-141.84;78.70;17672.31;5071893;28;20224;-56
2022/05/20 06:00:22;;;;;;;7.25;6.15;;;19.80;99.90;;;-141.84;78.72;17686.53;5071762;28;20299;-56
2022/05/20 06:02:50;;;;;;;7.72;7.03;;;19.90;99.90;;;-141.84;75.86;17869.34;5071494;28;20766;-51
2022/05/20 06:05:18;;;;;;;7.40;6.18;;;20.10;99.90;;;-141.84;76.22;17851.06;5071903;28;20267;-51
2022/05/20 06:07:48;;;;;;;7.78;6.97;;;20.20;99.90;;;-141.84;74.69;17895.75;5071491;28;20668;-54
2022/05/20 06:10:16;;;;;;;9.20;6.22;;;20.20;99.90;;;-141.84;76.71;17824.66;5071782;28;20295;-55
2022/05/20 06:12:44;;;;;;;9.35;7.75;;;20.10;99.90;;;-141.84;77.71;17765.75;5071627;28;20197;-53
2022/05/20 06:15:17;;;;;;;8.90;6.15;;;20.00;99.90;;;-141.84;78.44;17706.84;5071200;28;20291;-54
2022/05/20 06:17:46;;;;;;;6.60;5.97;;;20.00;99.90;;;-141.84;79.11;17704.81;5071716;28;20277;-54
2022/05/20 06:20:14;;;;;;;8.73;6.53;;;19.90;99.90;;;-141.84;78.40;17698.72;5071488;28;20287;-54
2022/05/20 06:22:42;;;;;;;7.50;6.43;;;19.90;99.90;;;-141.84;79.95;17639.81;5071134;28;20197;-52
2022/05/20 06:25:14;;;;;;;8.52;7.10;;;20.00;99.90;;;-141.84;76.76;17800.28;5071160;28;20308;-52
2022/05/20 06:27:42;;;;;;;10.13;7.00;;;20.10;99.90;;;-141.84;74.28;17950.63;5073465;28;20299;-53
2022/05/20 06:30:14;;;;;;;9.80;6.70;;;20.40;99.90;;;-141.84;74.99;17924.22;5071434;28;20284;-51
2022/05/20 06:32:42;;;;;;;8.45;7.57;;;20.50;99.90;;;-141.84;75.72;17903.88;5071660;28;20212;-53
2022/05/20 06:40:55;;;;;;;8.00;7.20;;;20.30;99.90;;;-141.84;76.34;17881.53;5070976;28;20684;-53
2022/05/20 06:43:23;;;;;;;7.93;7.13;;;20.40;99.90;;;-141.84;76.09;17895.75;5071355;28;20254;-55
2022/05/20 06:45:58;;;;;;;8.75;6.63;;;20.50;99.90;;;-141.84;75.89;17887.63;5071438;28;20228;-56
2022/05/20 06:48:50;;;;;;;7.53;6.63;;;20.80;99.90;;;-141.84;73.26;18021.72;5070820;28;20201;-55
2022/05/20 06:51:21;;;;;;;8.18;7.38;;;20.90;99.90;;;-141.84;73.93;17958.75;5069295;28;20207;-54
2022/05/20 06:53:49;;;;;;;7.25;6.55;;;20.90;99.90;;;-141.84;73.93;18013.59;5070414;28;20186;-54
2022/05/20 06:56:19;;;;;;;7.65;6.85;;;21.00;99.90;;;-141.84;73.97;17997.34;5073609;28;20204;-54
2022/05/20 06:58:47;;;;;;;8.45;6.38;;;20.80;99.90;;;-141.84;73.06;18019.69;5074731;28;20196;-56
2022/05/20 07:01:16;;;;;;;8.05;7.25;;;20.90;99.90;;;-141.84;73.39;18042.03;5074119;28;20236;-54
2022/05/20 07:03:45;;;;;;;8.43;7.57;;;20.90;99.90;;;-141.84;73.78;17991.25;5073556;28;20208;-52
2022/05/20 07:06:16;;;;;;;8.23;7.43;;;21.00;99.90;;;-141.84;71.78;18092.81;5073975;28;20299;-52
2022/05/20 07:08:48;;;;;;;7.18;6.50;;;21.00;99.90;;;-141.84;73.08;18060.31;5073643;28;20280;-52
2022/05/20 07:11:19;;;;;;;8.07;6.85;;;21.10;99.90;;;-141.84;73.25;18076.56;5073738;28;20239;-52
2022/05/20 07:13:50;;;;;;;7.28;6.57;;;21.20;99.90;;;-141.84;73.47;18058.28;5073809;28;20189;-53
2022/05/20 07:16:19;;;;;;;8.30;6.90;;;21.20;99.90;;;-141.84;72.92;18074.53;5073794;28;20276;-48
2022/05/20 07:18:48;;;;;;;8.52;7.72;;;21.30;99.90;;;-141.84;72.62;18100.94;5073919;28;20207;-51
2022/05/20 07:21:16;;;;;;;7.65;6.78;;;21.40;99.90;;;-141.84;70.95;18165.94;5073903;28;20326;-51
2022/05/20 07:23:44;;;;;;;8.70;7.80;;;21.60;99.90;;;-141.84;68.66;18265.50;5073389;28;20296;-51
2022/05/20 07:26:13;;;;;;;7.15;6.47;;;21.70;99.90;;;-141.84;67.93;18399.56;5073357;28;20289;-53
2022/05/20 07:28:43;;;;;;;7.03;6.30;;;21.90;99.90;;;-141.84;65.86;18383.31;5073456;28;20250;-52
2022/05/20 07:31:11;;;;;;;10.45;6.85;;;22.10;99.90;;;-141.84;66.92;18379.25;5073617;28;20201;-55
2022/05/20 07:33:39;;;;;;;6.45;5.85;;;22.10;99.90;;;-141.84;68.02;18354.88;5073416;28;20722;-55
2022/05/20 07:36:08;;;;;;;7.10;6.07;;;22.20;99.90;;;-141.84;67.14;18401.59;5073470;28;20205;-51
2022/05/20 07:38:36;;;;;;;8.93;7.20;;;22.40;99.90;;;-141.84;65.71;18425.97;5073247;28;20227;-48
2022/05/20 07:41:05;;;;;;;8.00;7.30;;;22.50;99.90;;;-141.84;66.10;18391.44;5072961;28;20675;-54
2022/05/20 07:43:34;;;;;;;8.45;7.65;;;22.60;99.90;;;-141.84;67.06;18375.19;5073198;28;20573;-53
2022/05/20 07:46:04;;;;;;;9.05;8.10;;;22.50;99.90;;;-141.84;66.75;18399.56;5073207;28;20217;-54
2022/05/20 07:48:33;;;;;;;8.60;7.70;;;22.40;99.90;;;-141.84;66.63;18430.06;5073439;28;20189;-51
2022/05/20 07:51:08;;;;;;;7.30;6.70;;;22.60;99.90;;;-141.84;67.11;18425.97;5073053;28;20739;-52
2022/05/20 07:53:44;;;;;;;7.60;6.75;;;22.60;99.90;;;-141.84;66.20;18428.03;5072926;28;20223;-53
2022/05/20 07:56:20;;;;;;;8.43;7.63;;;22.70;99.90;;;-141.84;66.87;18446.31;5073156;28;20180;-54
2022/05/20 07:58:52;;;;;;;7.43;6.68;;;22.80;99.90;;;-141.84;66.09;18476.78;5072562;28;20220;-53
2022/05/20 08:01:28;;;;;;;9.13;8.30;;;22.90;99.90;;;-141.84;66.19;18470.69;5073000;28;20197;-53
2022/05/20 08:06:49;;;;;;;9.20;8.30;;;22.80;99.90;;;-141.84;63.98;18523.50;5072909;28;20208;-53
2022/05/20 08:09:22;;;;;;;8.70;7.85;;;22.90;99.90;;;-141.84;66.12;18497.09;5072658;28;20272;-50
2022/05/20 08:11:51;;;;;;;9.30;8.40;;;22.90;99.90;;;-141.84;64.92;18533.66;5072822;28;20297;-55
2022/05/20 08:14:19;;;;;;;8.30;7.57;;;22.90;99.90;;;-141.84;64.54;18533.66;5072955;28;20303;-55
2022/05/20 08:16:48;;;;;;;9.80;8.52;;;23.10;99.90;;;-141.84;64.57;18568.19;5072323;28;20531;-55
2022/05/20 08:19:16;;;;;;;10.05;8.82;;;23.30;99.90;;;-141.84;63.48;18582.44;5072748;28;20201;-59
2022/05/20 08:21:44;;;;;;;9.35;8.50;;;23.20;99.90;;;-141.84;62.06;18688.06;5072364;28;20552;-56
2022/05/20 08:24:12;;;;;;;9.75;8.75;;;23.30;99.90;;;-141.84;61.59;18710.44;5072569;28;20225;-56
2022/05/20 08:26:40;;;;;;;10.55;9.65;;;23.40;99.90;;;-141.84;60.17;18765.28;5072414;28;20315;-57
2022/05/20 08:29:09;;;;;;;9.35;8.45;;;23.30;99.90;;;-141.84;60.33;18710.44;5072517;28;20205;-54
2022/05/20 08:31:38;;;;;;;10.18;9.27;;;23.50;99.90;;;-141.84;60.53;18714.50;5072351;28;20278;-54
2022/05/20 08:34:08;;;;;;;10.60;9.50;;;23.70;99.90;;;-141.84;59.53;18734.81;5072478;28;20200;-53
2022/05/20 08:36:38;;;;;;;10.32;9.32;;;23.50;99.90;;;-141.84;60.47;18763.25;5072341;28;20197;-51
2022/05/20 08:39:10;;;;;;;12.88;10.68;;;23.50;99.90;;;-141.84;61.53;18657.59;5072052;28;20281;-53
2022/05/20 08:41:42;;;;;;;11.65;10.55;;;23.30;99.90;;;-141.84;62.04;18614.94;5072204;28;20185;-55
2022/05/20 08:44:14;;;;;;;10.65;9.50;;;23.10;99.90;;;-141.84;63.13;18653.53;5072273;28;20196;-53
2022/05/20 08:46:42;;;;;;;11.38;10.27;;;23.20;99.90;;;-141.84;60.73;18722.63;5072130;28;20205;-55
2022/05/20 08:49:16;;;;;;;12.18;10.98;;;23.40;99.90;;;-141.84;61.63;18704.31;5072219;28;20204;-55
2022/05/20 08:51:49;;;;;;;10.60;9.68;;;23.30;99.90;;;-141.84;60.02;18773.41;5071437;28;20195;-56
2022/05/20 08:54:18;;;;;;;9.40;8.60;;;23.50;99.90;;;-141.84;61.36;18728.72;5071842;28;20288;-54
2022/05/20 08:56:47;;;;;;;11.27;10.13;;;23.60;99.90;;;-141.84;60.85;18747.00;5071572;28;20205;-57
2022/05/20 08:59:23;;;;;;;11.50;10.40;;;23.70;99.90;;;-141.84;62.04;18692.13;5071737;28;20200;-57
2022/05/20 09:01:53;;;;;;;14.15;12.93;;;23.60;99.90;;;-141.84;59.92;18744.97;5071849;28;20193;-59
2022/05/20 09:04:24;;;;;;;12.93;11.73;;;23.40;99.90;;;-141.84;58.68;18740.91;5071840;28;20196;-57
2022/05/20 09:07:02;;;;;;;14.15;11.65;;;23.30;99.90;;;-141.84;58.93;18767.31;5071597;28;20212;-58
2022/05/20 09:09:47;;;;;;;13.70;12.40;;;23.20;99.90;;;-141.84;60.47;18696.19;5071584;28;20185;-54
2022/05/20 09:12:28;;;;;;;14.02;12.63;;;23.30;99.90;;;-141.84;59.04;18759.19;5071613;28;20227;-53
2022/05/20 09:18:01;;;;;;;11.48;9.95;;;23.40;99.90;;;-141.84;58.87;18805.91;5071010;28;20193;-52
2022/05/20 09:20:31;;;;;;;13.80;12.60;;;23.70;99.90;;;-141.84;58.56;18836.41;5071385;28;20189;-54
2022/05/20 09:23:04;;;;;;;15.65;13.90;;;23.70;99.90;;;-141.84;59.03;18824.22;5071161;28;20661;-54
2022/05/20 09:25:36;;;;;;;16.35;14.95;;;23.60;99.90;;;-141.84;58.59;18783.56;5071164;28;20205;-55
2022/05/20 09:28:29;;;;;;;17.92;16.33;;;23.50;99.90;;;-141.84;58.09;18777.47;5071242;28;20553;-55
2022/05/20 09:31:13;;;;;;;15.80;14.40;;;23.30;99.90;;;-141.84;59.76;18740.91;5071322;28;20191;-54
2022/05/20 09:33:50;;;;;;;17.30;15.60;;;23.20;99.90;;;-141.84;61.81;18635.25;5071389;28;20530;-54
2022/05/20 09:36:39;;;;;;;16.83;15.32;;;23.10;99.90;;;-141.84;62.55;18667.75;5071530;28;20200;-55
2022/05/20 09:39:15;;;;;;;17.55;15.93;;;22.90;99.90;;;-141.84;61.60;18659.63;5071150;28;20181;-54
2022/05/20 09:41:53;;;;;;;17.67;15.98;;;22.80;99.90;;;-141.84;62.24;18677.91;5065678;28;20193;-52
2022/05/20 09:44:32;;;;;;;16.77;15.18;;;22.90;99.90;;;-141.84;62.37;18706.38;5070757;28;20195;-54
2022/05/20 09:47:13;;;;;;;16.85;15.15;;;22.90;99.90;;;-141.84;62.68;18679.94;5071886;28;20676;-57
2022/05/20 09:49:52;;;;;;;16.55;14.98;;;22.90;99.90;;;-141.84;60.77;18692.13;5070908;28;20656;-54
2022/05/20 09:52:41;;;;;;;16.80;15.27;;;23.10;99.90;;;-141.84;61.36;18700.25;5070734;28;20231;-51
2022/05/20 09:55:15;;;;;;;15.30;14.00;;;23.20;99.90;;;-141.84;61.89;18663.69;5070744;28;20197;-52
2022/05/20 09:57:47;;;;;;;17.98;16.38;;;23.20;99.90;;;-141.84;60.97;18698.22;5070803;28;20185;-53
2022/05/20 10:00:21;;;;;;;15.95;14.55;;;23.20;99.90;;;-141.84;61.24;18714.50;5071618;28;20184;-55
2022/05/20 10:03:04;;;;;;;18.83;17.05;;;23.20;99.90;;;-141.84;60.95;18718.56;5071978;28;20181;-56
2022/05/20 10:05:42;;;;;;;16.50;15.05;;;23.30;99.90;;;-141.84;60.11;18769.34;5071896;28;20312;-54
2022/05/20 10:08:22;;;;;;;17.17;15.68;;;23.40;99.90;;;-141.84;58.94;18791.69;5071981;28;20177;-54
2022/05/20 10:11:06;;;;;;;15.63;14.13;;;23.40;99.90;;;-141.84;58.25;18830.31;5071398;28;20193;-52
2022/05/20 10:13:54;;;;;;;18.23;16.33;;;23.60;99.90;;;-141.84;57.93;18858.75;5072242;28;20218;-59
2022/05/20 10:16:41;;;;;;;15.48;13.98;;;23.80;99.90;;;-141.84;58.26;18856.72;5072142;28;20216;-52
2022/05/20 10:19:22;;;;;;;16.42;14.93;;;24.10;99.90;;;-141.84;56.96;18901.41;5071812;28;20212;-55
2022/05/20 10:22:00;;;;;;;14.07;12.90;;;24.10;99.90;;;-141.84;57.95;18895.31;5071927;28;20184;-55
2022/05/20 10:24:51;;;;;;;14.60;13.30;;;24.00;99.90;;;-141.84;57.88;18870.94;5064969;28;20212;-53
2022/05/20 10:27:26;;;;;;;15.15;13.85;;;24.00;99.90;;;-141.84;58.44;18838.44;5050491;28;20301;-52
2022/05/20 10:32:58;;;;;;;13.93;12.50;;;23.80;99.90;;;-141.84;57.37;18828.28;5054561;28;20188;-55
2022/05/20 10:35:41;;;;;;;14.25;12.98;;;23.70;99.90;;;-141.84;58.51;18822.19;5065557;28;20328;-54
2022/05/20 10:38:43;;;;;;;14.40;13.00;;;23.70;99.90;;;-141.84;57.41;18856.72;5074267;28;20565;-52
2022/05/20 10:41:27;;;;;;;11.75;10.60;;;23.90;99.90;;;-141.84;56.19;18933.94;5074367;28;20584;-54
2022/05/20 10:50:26;;;;;;;14.38;12.77;;;24.70;99.90;;;-141.84;54.11;19051.78;5074538;28;20223;-52
2022/05/20 10:53:14;;;;;;;11.60;10.50;;;24.80;99.90;;;-141.84;53.32;19059.91;5074379;28;20189;-55
2022/05/20 10:56:01;;;;;;;12.00;10.85;;;24.90;99.90;;;-141.84;53.21;19078.19;5074320;28;20556;-52